Louisville, Kentucky
Current Conditions -  °F | °C
As of 7:56 AM on Wednesday 22 Oct 2014 (Local Time) from KSDF Reporting Station
Broken Clouds Broken Clouds  
Wind Chill:   Ceiling: 3200
Heat Index:   Visibility: 10mi
Dew Point:   Wind: 5mph
Humidity: 76%   Direction: 10°N
Pressure: 30.26"   Gusts: NA
Location:  38.25°N, 85.77°W
Report Text: KSDF 221156Z 01004KT 10SM BKN032 07/03 A3026 RMK AO2 SLP248 T00720033 10100 20067 53014
Loading
Personal Weather Stations






























Interactive Weather Map
Tropical Storm Tracking
New forecast layout! Learn more

10-Day Weather Forecast

Advertisements
Track Severe Weather on mobile